Time;durP1;ratioP1;P1;durP2;ratioP2;P2;SDS_P1;SDS_P2;PMS_P1;PMS_P2;Temp;Humidity;BMP_temperature;BMP_pressure;BME280_temperature;BME280_humidity;BME280_pressure;Samples;Min_cycle;Max_cycle;Signal;HPM_P1;HPM_P2
2021/11/16 00:00:49;;;;;;;;;;;;;;;-0.36;84.35;98693.36;108031;1272;69460;-74
2021/11/16 00:03:19;;;;;;;;;;;;;;;-0.34;84.39;98697.11;107965;1272;59786;-71
2021/11/16 00:05:48;;;;;;;;;;;;;;;-0.38;84.66;98693.89;108152;1272;59701;-74
2021/11/16 00:08:17;;;;;;;;;;;;;;;-0.44;84.92;98696.34;108189;1272;71584;-68
2021/11/16 00:10:47;;;;;;;;;;;;;;;-0.51;84.14;98697.93;108018;1275;67709;-71
2021/11/16 00:13:16;;;;;;;;;;;;;;;-0.66;85.56;98698.56;108106;1273;69611;-74
2021/11/16 00:15:45;;;;;;;;;;;;;;;-0.79;86.68;98700.71;108099;1272;59713;-68
2021/11/16 00:18:19;;;;;;;;;;;;;;;-0.80;86.05;98695.92;108058;1272;59764;-71
2021/11/16 00:20:49;;;;;;;;;;;;;;;-0.85;86.11;98682.94;108052;1272;71561;-71
2021/11/16 00:23:22;;;;;;;;;;;;;;;-0.89;85.50;98681.61;108029;1272;68889;-69
2021/11/16 00:25:54;;;;;;;;;;;;;;;-0.92;86.04;98681.79;108053;1272;68648;-73
2021/11/16 00:28:24;;;;;;;;;;;;;;;-0.94;87.70;98686.77;108001;1275;59769;-70
2021/11/16 00:30:53;;;;;;;;;;;;;;;-0.94;87.23;98685.23;108047;1272;59717;-70
2021/11/16 00:33:24;;;;;;;;;;;;;;;-0.96;86.48;98685.59;108026;1273;71353;-71
2021/11/16 00:35:52;;;;;;;;;;;;;;;-0.91;84.77;98688.13;108081;1272;67980;-68
2021/11/16 00:38:25;;;;;;;;;;;;;;;-0.91;88.23;98682.84;107946;1275;68561;-69
2021/11/16 00:40:55;;;;;;;;;;;;;;;-0.89;87.82;98686.74;107992;1273;59655;-73
2021/11/16 00:43:24;;;;;;;;;;;;;;;-0.76;86.16;98688.02;108020;1275;59672;-69
2021/11/16 00:45:56;;;;;;;;;;;;;;;-0.73;86.43;98691.93;108039;1272;70746;-73
2021/11/16 00:48:25;;;;;;;;;;;;;;;-0.81;86.88;98694.21;108001;1275;68614;-68
2021/11/16 00:50:57;;;;;;;;;;;;;;;-0.88;87.97;98694.27;108052;1272;68614;-68
2021/11/16 00:53:30;;;;;;;;;;;;;;;-0.90;88.02;98696.16;108049;1275;59753;-70
2021/11/16 00:56:00;;;;;;;;;;;;;;;-0.93;87.58;98695.51;108001;1275;59761;-73
2021/11/16 00:58:29;;;;;;;;;;;;;;;-0.96;86.42;98693.64;108011;1273;70864;-72
2021/11/16 01:01:00;;;;;;;;;;;;;;;-0.99;86.47;98693.65;108034;1271;68649;-69
2021/11/16 01:03:37;;;;;;;;;;;;;;;-1.02;86.72;98693.68;107999;1274;69467;-70
2021/11/16 01:06:06;;;;;;;;;;;;;;;-1.06;86.66;98694.20;108004;1275;59774;-70
2021/11/16 01:08:35;;;;;;;;;;;;;;;-1.10;88.23;98690.13;107977;1275;59718;-67
2021/11/16 01:11:05;;;;;;;;;;;;;;;-1.07;87.24;98692.50;108071;1271;70797;-72
2021/11/16 01:13:35;;;;;;;;;;;;;;;-1.03;89.84;98694.70;108269;1272;67872;-69
2021/11/16 01:16:06;;;;;;;;;;;;;;;-1.01;90.35;98698.29;108059;1274;69488;-68
2021/11/16 01:18:35;;;;;;;;;;;;;;;-0.99;89.64;98699.47;108040;1272;59781;-71
2021/11/16 01:21:05;;;;;;;;;;;;;;;-1.03;88.95;98699.83;108111;1274;59715;-72
2021/11/16 01:23:35;;;;;;;;;;;;;;;-1.04;87.34;98701.89;108057;1272;71457;-72
2021/11/16 01:26:05;;;;;;;;;;;;;;;-0.98;85.94;98702.89;108046;1272;68610;-72
2021/11/16 01:28:34;;;;;;;;;;;;;;;-0.97;86.29;98697.92;108079;1271;69418;-72
2021/11/16 01:31:05;;;;;;;;;;;;;;;-1.00;87.06;98697.94;108033;1272;59732;-72
2021/11/16 01:33:55;;;;;;;;;;;;;;;-0.97;85.98;98698.27;108053;1271;59633;-69
2021/11/16 01:36:26;;;;;;;;;;;;;;;-0.96;85.72;98698.61;108349;1272;70747;-67
2021/11/16 01:38:57;;;;;;;;;;;;;;;-0.98;87.07;98698.27;108043;1275;67967;-70
2021/11/16 01:41:29;;;;;;;;;;;;;;;-1.00;87.04;98698.46;107959;1276;69488;-73
2021/11/16 01:44:00;;;;;;;;;;;;;;;-1.02;86.62;98698.29;108093;1273;60055;-73
2021/11/16 01:46:30;;;;;;;;;;;;;;;-1.00;86.84;98694.88;108117;1271;59771;-68
2021/11/16 01:49:02;;;;;;;;;;;;;;;-1.04;87.25;98691.63;108080;1272;70773;-73
2021/11/16 01:51:31;;;;;;;;;;;;;;;-1.07;87.01;98700.02;108056;1272;68784;-68
2021/11/16 01:54:01;;;;;;;;;;;;;;;-1.12;87.13;98697.48;108046;1272;68354;-70
2021/11/16 01:56:33;;;;;;;;;;;;;;;-1.17;86.16;98694.95;108066;1272;59786;-69
2021/11/16 01:59:03;;;;;;;;;;;;;;;-1.20;85.28;98695.66;108030;1273;59703;-72
2021/11/16 02:01:34;;;;;;;;;;;;;;;-1.16;85.30;98695.13;107934;1273;71649;-71
2021/11/16 02:04:07;;;;;;;;;;;;;;;-1.19;85.72;98690.52;108062;1272;68699;-70
2021/11/16 02:06:38;;;;;;;;;;;;;;;-1.24;85.58;98693.28;108090;1272;68646;-70
2021/11/16 02:09:10;;;;;;;;;;;;;;;-1.30;85.41;98687.33;108070;1272;59665;-72
2021/11/16 02:11:39;;;;;;;;;;;;;;;-1.35;85.26;98684.94;108095;1272;59764;-70
2021/11/16 02:14:09;;;;;;;;;;;;;;;-1.31;85.57;98685.09;108121;1275;70575;-70
2021/11/16 02:16:41;;;;;;;;;;;;;;;-1.30;86.11;98681.16;108099;1275;68480;-72
2021/11/16 02:19:11;;;;;;;;;;;;;;;-1.30;86.22;98684.23;108021;1275;69484;-69
2021/11/16 02:21:41;;;;;;;;;;;;;;;-1.34;86.94;98680.33;108117;1271;59719;-70
2021/11/16 02:24:11;;;;;;;;;;;;;;;-1.36;87.46;98679.98;108098;1272;59750;-70
2021/11/16 02:26:40;;;;;;;;;;;;;;;-1.33;86.23;98681.35;108094;1272;71566;-69
2021/11/16 02:29:09;;;;;;;;;;;;;;;-1.25;85.51;98683.54;107941;1275;68466;-73
2021/11/16 02:31:39;;;;;;;;;;;;;;;-1.25;86.09;98684.04;107830;1275;68600;-71
2021/11/16 02:34:08;;;;;;;;;;;;;;;-1.26;86.51;98682.68;107854;1277;59774;-70
2021/11/16 02:36:38;;;;;;;;;;;;;;;-1.26;87.26;98680.11;107975;1277;59696;-72
2021/11/16 02:39:12;;;;;;;;;;;;;;;-1.29;87.26;98680.30;108003;1275;70757;-68
2021/11/16 02:41:49;;;;;;;;;;;;;;;-1.33;86.91;98677.93;108014;1272;67904;-72
2021/11/16 02:44:22;;;;;;;;;;;;;;;-1.39;87.32;98677.62;108066;1272;68609;-69
2021/11/16 02:46:52;;;;;;;;;;;;;;;-1.43;87.60;98668.74;108045;1272;59709;-73
2021/11/16 02:49:23;;;;;;;;;;;;;;;-1.48;88.40;98670.31;108047;1271;59836;-71
2021/11/16 02:51:53;;;;;;;;;;;;;;;-1.50;88.40;98673.23;108038;1272;69835;-70
2021/11/16 02:54:23;;;;;;;;;;;;;;;-1.52;87.86;98674.10;108037;1275;69766;-70
2021/11/16 02:56:53;;;;;;;;;;;;;;;-1.54;88.51;98672.91;108069;1275;69472;-68
2021/11/16 02:59:22;;;;;;;;;;;;;;;-1.56;89.52;98673.94;107850;1276;59749;-66
2021/11/16 03:01:52;;;;;;;;;;;;;;;-1.55;89.27;98674.10;108036;1272;59693;-72
2021/11/16 03:04:23;;;;;;;;;;;;;;;-1.51;89.18;98671.36;108065;1274;71596;-72
2021/11/16 03:06:52;;;;;;;;;;;;;;;-1.45;88.57;98674.56;108016;1276;68733;-72
2021/11/16 03:09:23;;;;;;;;;;;;;;;-1.25;87.08;98674.47;108090;1274;68629;-71
2021/11/16 03:11:53;;;;;;;;;;;;;;;-1.11;87.67;98673.02;108044;1275;59701;-73
2021/11/16 03:14:24;;;;;;;;;;;;;;;-1.06;87.89;98672.83;107989;1275;59723;-72
2021/11/16 03:16:55;;;;;;;;;;;;;;;-1.10;87.73;98669.08;108029;1272;71567;-72
2021/11/16 03:19:25;;;;;;;;;;;;;;;-1.15;87.55;98668.09;108100;1275;67613;-68
2021/11/16 03:21:56;;;;;;;;;;;;;;;-1.18;87.36;98670.50;108012;1275;68423;-69
2021/11/16 03:24:29;;;;;;;;;;;;;;;-1.25;87.37;98667.29;107833;1275;59713;-68
2021/11/16 03:27:02;;;;;;;;;;;;;;;-1.33;88.31;98663.56;108057;1276;59699;-72
2021/11/16 03:29:37;;;;;;;;;;;;;;;-1.36;89.06;98664.95;108035;1274;71460;-72
2021/11/16 03:32:09;;;;;;;;;;;;;;;-1.36;88.70;98660.50;108021;1275;68463;-69
2021/11/16 03:34:42;;;;;;;;;;;;;;;-1.37;88.22;98657.60;108074;1275;68249;-70
2021/11/16 03:37:12;;;;;;;;;;;;;;;-1.42;88.47;98657.45;108067;1272;59766;-72
2021/11/16 03:39:42;;;;;;;;;;;;;;;-1.45;88.42;98659.52;108119;1271;59735;-71
2021/11/16 03:42:13;;;;;;;;;;;;;;;-1.47;87.81;98657.48;107958;1275;70641;-70
2021/11/16 03:44:42;;;;;;;;;;;;;;;-1.51;87.34;98654.77;108132;1272;68713;-67
2021/11/16 03:47:12;;;;;;;;;;;;;;;-1.55;87.00;98650.00;108042;1272;69504;-71
2021/11/16 03:49:41;;;;;;;;;;;;;;;-1.61;88.62;98650.89;108044;1275;59758;-72
2021/11/16 03:52:10;;;;;;;;;;;;;;;-1.62;90.22;98654.32;108043;1272;59686;-71
2021/11/16 03:54:39;;;;;;;;;;;;;;;-1.62;90.17;98652.09;108039;1271;71739;-70
2021/11/16 03:57:09;;;;;;;;;;;;;;;-1.60;89.05;98649.00;108102;1272;67837;-70
2021/11/16 03:59:39;;;;;;;;;;;;;;;-1.59;87.48;98650.70;108032;1275;69483;-72
2021/11/16 04:02:08;;;;;;;;;;;;;;;-1.70;86.68;98650.58;108047;1271;59799;-68
2021/11/16 04:04:37;;;;;;;;;;;;;;;-1.84;86.97;98645.34;108021;1272;59776;-68
2021/11/16 04:07:06;;;;;;;;;;;;;;;-1.92;87.47;98650.14;108108;1272;71421;-70
2021/11/16 04:09:37;;;;;;;;;;;;;;;-1.97;87.39;98649.66;108065;1273;67870;-70
2021/11/16 04:12:07;;;;;;;;;;;;;;;-2.00;87.08;98647.94;108070;1272;69426;-69
2021/11/16 04:14:36;;;;;;;;;;;;;;;-1.99;89.13;98642.64;108103;1274;59776;-71
2021/11/16 04:17:05;;;;;;;;;;;;;;;-1.93;89.67;98645.69;108116;1275;59713;-70
2021/11/16 04:19:35;;;;;;;;;;;;;;;-1.87;89.49;98639.70;108058;1272;71646;-72
2021/11/16 04:22:04;;;;;;;;;;;;;;;-1.76;89.71;98637.10;108085;1272;67903;-72
2021/11/16 04:24:33;;;;;;;;;;;;;;;-1.71;90.20;98640.49;108010;1272;69504;-69
2021/11/16 04:27:03;;;;;;;;;;;;;;;-1.67;88.99;98638.42;108039;1272;59857;-69
2021/11/16 04:29:32;;;;;;;;;;;;;;;-1.65;87.52;98633.80;108114;1272;59690;-72
2021/11/16 04:32:05;;;;;;;;;;;;;;;-1.63;87.29;98638.05;108091;1271;70825;-68
2021/11/16 04:34:36;;;;;;;;;;;;;;;-1.62;87.02;98639.79;108111;1275;68019;-71
2021/11/16 04:37:05;;;;;;;;;;;;;;;-1.63;86.88;98638.07;108113;1271;68685;-74
2021/11/16 04:39:35;;;;;;;;;;;;;;;-1.68;87.11;98643.56;107988;1274;59712;-71
2021/11/16 04:42:04;;;;;;;;;;;;;;;-1.77;87.04;98650.44;108033;1275;59738;-73
2021/11/16 04:44:33;;;;;;;;;;;;;;;-1.82;87.52;98644.29;108062;1272;70785;-69
2021/11/16 04:47:02;;;;;;;;;;;;;;;-1.85;88.41;98646.02;108041;1275;67664;-67
2021/11/16 04:49:36;;;;;;;;;;;;;;;-1.88;88.44;98651.33;108019;1275;69716;-71
2021/11/16 05:02:56;;;;;;;;;;;;;;;-1.86;88.06;98650.13;108055;1274;69457;-72
2021/11/16 05:05:26;;;;;;;;;;;;;;;-1.75;87.27;98650.59;107984;1276;59847;-73
2021/11/16 05:08:00;;;;;;;;;;;;;;;-1.74;87.56;98645.31;108072;1272;59795;-69
2021/11/16 05:10:30;;;;;;;;;;;;;;;-1.76;88.97;98643.93;108085;1275;70865;-72
2021/11/16 05:12:59;;;;;;;;;;;;;;;-1.76;90.32;98644.45;108124;1271;67744;-71
2021/11/16 05:15:29;;;;;;;;;;;;;;;-1.77;90.05;98646.66;108073;1274;69450;-74
2021/11/16 05:17:58;;;;;;;;;;;;;;;-1.80;89.46;98646.16;108046;1272;59734;-69
2021/11/16 05:20:26;;;;;;;;;;;;;;;-1.83;88.82;98647.04;108018;1275;59708;-71
2021/11/16 05:22:55;;;;;;;;;;;;;;;-1.86;89.05;98647.04;108137;1272;69797;-71
2021/11/16 05:25:25;;;;;;;;;;;;;;;-1.89;88.92;98645.86;108095;1272;68635;-71
2021/11/16 05:27:54;;;;;;;;;;;;;;;-1.91;88.65;98647.91;108118;1272;69461;-70
2021/11/16 05:30:28;;;;;;;;;;;;;;;-1.92;87.79;98647.41;107983;1275;59824;-71
2021/11/16 05:32:57;;;;;;;;;;;;;;;-1.92;86.93;98645.36;108088;1272;59697;-69
2021/11/16 05:35:26;;;;;;;;;;;;;;;-1.95;87.13;98649.97;108103;1274;71623;-70
2021/11/16 05:37:55;;;;;;;;;;;;;;;-1.93;86.95;98648.77;108054;1272;68502;-71
2021/11/16 05:40:25;;;;;;;;;;;;;;;-1.88;86.90;98652.34;108030;1275;69438;-70
2021/11/16 05:42:54;;;;;;;;;;;;;;;-1.84;86.90;98649.44;108082;1272;59767;-72
2021/11/16 05:45:23;;;;;;;;;;;;;;;-1.81;86.65;98656.08;108018;1275;59752;-70
2021/11/16 05:47:53;;;;;;;;;;;;;;;-1.74;86.27;98656.23;108045;1275;70978;-68
2021/11/16 05:50:22;;;;;;;;;;;;;;;-1.69;87.28;98651.08;107993;1276;68651;-68
2021/11/16 05:52:51;;;;;;;;;;;;;;;-1.66;87.56;98650.21;107992;1275;69913;-71
2021/11/16 05:55:20;;;;;;;;;;;;;;;-1.65;87.50;98654.14;108067;1275;59771;-73
2021/11/16 05:57:50;;;;;;;;;;;;;;;-1.63;88.75;98662.51;108080;1275;59749;-71
2021/11/16 06:00:19;;;;;;;;;;;;;;;-1.56;89.93;98668.46;108067;1272;71959;-69
2021/11/16 06:02:48;;;;;;;;;;;;;;;-1.47;89.10;98670.82;107986;1275;68522;-72
2021/11/16 06:05:17;;;;;;;;;;;;;;;-1.39;87.67;98666.15;108041;1275;69364;-70
2021/11/16 06:07:46;;;;;;;;;;;;;;;-1.34;87.31;98669.73;108032;1275;59729;-72
2021/11/16 06:10:15;;;;;;;;;;;;;;;-1.30;87.38;98677.92;107974;1276;59690;-73
2021/11/16 06:12:44;;;;;;;;;;;;;;;-1.24;87.10;98677.38;108020;1276;72023;-70
2021/11/16 06:15:13;;;;;;;;;;;;;;;-1.19;86.60;98674.79;108050;1275;68826;-71
2021/11/16 06:17:44;;;;;;;;;;;;;;;-1.16;86.41;98669.27;108044;1272;70622;-71
2021/11/16 06:20:14;;;;;;;;;;;;;;;-1.15;86.10;98678.02;108015;1275;59738;-72
2021/11/16 06:22:43;;;;;;;;;;;;;;;-1.07;86.12;98674.02;108034;1272;59773;-69
2021/11/16 06:25:12;;;;;;;;;;;;;;;-0.96;86.57;98673.27;108026;1275;71634;-70
2021/11/16 06:27:41;;;;;;;;;;;;;;;-0.88;86.76;98674.08;107931;1275;68029;-69
2021/11/16 06:30:10;;;;;;;;;;;;;;;-0.84;87.11;98674.73;108020;1272;68651;-72
2021/11/16 06:32:39;;;;;;;;;;;;;;;-0.75;86.88;98670.73;108013;1275;59711;-70
2021/11/16 06:35:14;;;;;;;;;;;;;;;-0.61;86.52;98670.10;107875;1275;59722;-69
2021/11/16 06:37:43;;;;;;;;;;;;;;;-0.43;86.63;98666.53;108012;1273;71562;-73
2021/11/16 06:40:12;;;;;;;;;;;;;;;-0.19;86.78;98661.67;107997;1275;68661;-68
2021/11/16 06:42:41;;;;;;;;;;;;;;;0.35;86.64;98663.32;107970;1271;69487;-71
2021/11/16 06:45:10;;;;;;;;;;;;;;;1.05;86.51;98668.05;107995;1273;59843;-73
2021/11/16 06:47:39;;;;;;;;;;;;;;;1.83;84.89;98659.38;108000;1273;59696;-73
2021/11/16 06:50:08;;;;;;;;;;;;;;;2.54;83.39;98654.41;108062;1273;70806;-72
2021/11/16 06:52:38;;;;;;;;;;;;;;;3.28;83.22;98655.69;108045;1276;68020;-72
2021/11/16 06:55:08;;;;;;;;;;;;;;;4.04;80.76;98657.23;107886;1273;69470;-74
2021/11/16 06:57:36;;;;;;;;;;;;;;;4.75;79.80;98652.13;108000;1275;59796;-74
2021/11/16 07:00:06;;;;;;;;;;;;;;;5.38;79.33;98653.98;108076;1275;59764;-74
2021/11/16 07:02:35;;;;;;;;;;;;;;;6.05;78.98;98650.90;107959;1276;72109;-73
2021/11/16 07:05:09;;;;;;;;;;;;;;;6.67;71.28;98645.91;107970;1275;67884;-71
2021/11/16 07:07:42;;;;;;;;;;;;;;;7.19;70.54;98644.78;107997;1272;68910;-71
2021/11/16 07:10:15;;;;;;;;;;;;;;;7.52;69.60;98641.70;107785;1277;59748;-70
2021/11/16 07:12:44;;;;;;;;;;;;;;;7.86;70.95;98643.23;107891;1275;59712;-73
2021/11/16 07:15:13;;;;;;;;;;;;;;;8.32;70.77;98642.48;107772;1276;70811;-70
2021/11/16 07:17:42;;;;;;;;;;;;;;;8.83;70.98;98643.49;107958;1275;67898;-73
2021/11/16 07:20:12;;;;;;;;;;;;;;;9.33;68.43;98642.69;107937;1270;67952;-73
2021/11/16 07:22:41;;;;;;;;;;;;;;;9.77;66.94;98638.62;107883;1276;59723;-70
2021/11/16 07:25:11;;;;;;;;;;;;;;;10.16;64.87;98639.80;107767;1276;59770;-73
2021/11/16 07:27:41;;;;;;;;;;;;;;;10.60;63.54;98641.31;107973;1274;71569;-73
2021/11/16 07:30:10;;;;;;;;;;;;;;;11.07;62.85;98637.75;107965;1274;67817;-71
2021/11/16 07:32:46;;;;;;;;;;;;;;;11.47;59.04;98638.65;107933;1276;68627;-73
2021/11/16 07:35:17;;;;;;;;;;;;;;;11.91;60.69;98638.73;107805;1278;59749;-70
2021/11/16 07:37:47;;;;;;;;;;;;;;;12.39;59.47;98638.52;107838;1275;59701;-71
2021/11/16 07:40:20;;;;;;;;;;;;;;;12.70;57.21;98641.13;107902;1275;72386;-71
2021/11/16 07:42:56;;;;;;;;;;;;;;;12.94;57.19;98642.10;108006;1276;68692;-69
2021/11/16 07:45:30;;;;;;;;;;;;;;;13.30;56.34;98646.13;107827;1276;69447;-71
2021/11/16 07:48:06;;;;;;;;;;;;;;;13.66;56.50;98640.47;108014;1275;59755;-71
2021/11/16 07:50:37;;;;;;;;;;;;;;;13.97;53.28;98635.77;108077;1274;59706;-73
2021/11/16 07:53:17;;;;;;;;;;;;;;;13.87;42.13;98635.77;107965;1275;70839;-70
2021/11/16 07:55:52;;;;;;;;;;;;;;;13.76;46.21;98637.85;108032;1275;68672;-71
2021/11/16 07:58:23;;;;;;;;;;;;;;;14.01;48.72;98640.21;108013;1275;69782;-70
2021/11/16 08:00:53;;;;;;;;;;;;;;;14.57;47.22;98636.27;107899;1275;59748;-72
2021/11/16 08:03:24;;;;;;;;;;;;;;;14.76;43.88;98640.35;107910;1272;59749;-71
2021/11/16 08:11:36;;;;;;;;;;;;;;;15.09;46.54;98626.08;108007;1275;68916;-72
2021/11/16 08:14:07;;;;;;;;;;;;;;;15.58;43.29;98623.54;107932;1275;59730;-72
2021/11/16 08:16:48;;;;;;;;;;;;;;;15.98;42.64;98625.32;108030;1272;59731;-72
2021/11/16 08:19:19;;;;;;;;;;;;;;;15.94;40.68;98614.18;108112;1274;71655;-71
2021/11/16 08:21:54;;;;;;;;;;;;;;;15.69;40.32;98612.69;108030;1275;68832;-73
2021/11/16 08:24:25;;;;;;;;;;;;;;;15.11;40.60;98612.54;108014;1275;68656;-73
2021/11/16 08:26:54;;;;;;;;;;;;;;;15.72;41.80;98611.79;107863;1272;59782;-74
2021/11/16 08:29:24;;;;;;;;;;;;;;;16.20;42.10;98604.15;108030;1274;59723;-71
2021/11/16 08:32:06;;;;;;;;;;;;;;;16.10;38.77;98601.58;108116;1273;70855;-71
2021/11/16 08:34:40;;;;;;;;;;;;;;;16.34;39.82;98595.11;108086;1275;68646;-72
2021/11/16 08:37:10;;;;;;;;;;;;;;;16.98;40.28;98602.90;107808;1275;69477;-71
2021/11/16 08:39:44;;;;;;;;;;;;;;;17.52;37.47;98597.66;107947;1275;59783;-73
2021/11/16 08:42:16;;;;;;;;;;;;;;;17.75;36.86;98590.44;108005;1272;59744;-72
2021/11/16 08:44:47;;;;;;;;;;;;;;;17.87;34.55;98586.84;107883;1275;71028;-72
2021/11/16 08:47:16;;;;;;;;;;;;;;;17.65;36.83;98588.88;107947;1275;67876;-72
2021/11/16 08:49:45;;;;;;;;;;;;;;;18.21;37.85;98580.60;108043;1272;68078;-74
2021/11/16 08:52:16;;;;;;;;;;;;;;;18.46;34.87;98575.82;108063;1272;60082;-74
2021/11/16 08:54:59;;;;;;;;;;;;;;;19.00;36.37;98579.59;107995;1274;60124;-72
2021/11/16 08:57:30;;;;;;;;;;;;;;;19.47;34.31;98577.44;108053;1275;71503;-73
2021/11/16 08:59:59;;;;;;;;;;;;;;;19.05;33.10;98571.67;108008;1272;68367;-73
2021/11/16 09:02:29;;;;;;;;;;;;;;;19.08;33.47;98574.31;107922;1275;69546;-73
2021/11/16 09:05:07;;;;;;;;;;;;;;;19.05;32.68;98576.14;107922;1272;59700;-74
2021/11/16 09:07:36;;;;;;;;;;;;;;;18.99;31.27;98571.36;108008;1275;59729;-75
2021/11/16 09:10:13;;;;;;;;;;;;;;;18.68;31.94;98574.93;108026;1274;70641;-72
2021/11/16 09:12:44;;;;;;;;;;;;;;;18.18;31.85;98571.63;108029;1275;67868;-74
2021/11/16 09:15:21;;;;;;;;;;;;;;;17.30;32.95;98577.75;108020;1272;69571;-76
2021/11/16 09:18:06;;;;;;;;;;;;;;;17.10;34.23;98570.25;107908;1274;59700;-74
2021/11/16 09:20:35;;;;;;;;;;;;;;;17.20;33.92;98567.70;108042;1272;59718;-75
2021/11/16 09:23:04;;;;;;;;;;;;;;;17.44;33.51;98561.70;107810;1276;71148;-73
2021/11/16 09:25:35;;;;;;;;;;;;;;;17.60;33.46;98560.36;107807;1275;67668;-71
2021/11/16 09:28:25;;;;;;;;;;;;;;;17.86;32.72;98561.22;107952;1276;70140;-75
2021/11/16 09:30:54;;;;;;;;;;;;;;;17.78;32.55;98556.73;108047;1272;59764;-76
2021/11/16 09:33:23;;;;;;;;;;;;;;;17.72;32.69;98551.08;107977;1273;59706;-73
2021/11/16 09:35:58;;;;;;;;;;;;;;;17.59;32.52;98551.05;108077;1272;69775;-72
2021/11/16 09:38:35;;;;;;;;;;;;;;;16.96;32.76;98551.26;108087;1272;69235;-74
2021/11/16 09:41:04;;;;;;;;;;;;;;;16.51;33.88;98551.55;108045;1272;69543;-75
2021/11/16 09:43:33;;;;;;;;;;;;;;;16.27;34.16;98553.42;107993;1275;59765;-73
2021/11/16 09:46:09;;;;;;;;;;;;;;;16.10;33.99;98551.05;107978;1272;59728;-73
2021/11/16 09:48:39;;;;;;;;;;;;;;;16.32;34.32;98540.73;107950;1275;70915;-73
2021/11/16 09:51:19;;;;;;;;;;;;;;;16.72;33.10;98540.74;107918;1276;67809;-72
2021/11/16 09:53:58;;;;;;;;;;;;;;;16.80;33.45;98536.57;107948;1278;70223;-73
2021/11/16 09:56:29;;;;;;;;;;;;;;;17.10;33.00;98532.77;108028;1272;59750;-74
2021/11/16 09:58:58;;;;;;;;;;;;;;;17.38;32.60;98532.95;107988;1272;59761;-75
2021/11/16 10:01:32;;;;;;;;;;;;;;;17.67;32.28;98528.59;107987;1272;71511;-73
2021/11/16 10:04:16;;;;;;;;;;;;;;;17.57;32.35;98530.08;108013;1273;68749;-73
2021/11/16 10:06:46;;;;;;;;;;;;;;;17.36;33.11;98527.71;107943;1275;68788;-72
2021/11/16 10:09:15;;;;;;;;;;;;;;;16.72;33.99;98525.33;107960;1276;59774;-75
2021/11/16 10:11:44;;;;;;;;;;;;;;;15.88;35.36;98517.46;107980;1272;59723;-73
2021/11/16 10:14:18;;;;;;;;;;;;;;;15.29;36.62;98511.19;107893;1272;72196;-77
2021/11/16 10:16:48;;;;;;;;;;;;;;;16.10;35.85;98507.77;108024;1272;68614;-77
2021/11/16 10:19:37;;;;;;;;;;;;;;;17.34;33.54;98496.75;107974;1275;68510;-72
2021/11/16 10:22:11;;;;;;;;;;;;;;;17.94;31.62;98495.81;108042;1272;59747;-73
2021/11/16 10:24:41;;;;;;;;;;;;;;;18.26;31.73;98489.47;107996;1277;60146;-74
2021/11/16 10:27:16;;;;;;;;;;;;;;;18.85;30.17;98493.83;107922;1272;70953;-72
2021/11/16 10:30:00;;;;;;;;;;;;;;;18.96;29.82;98494.63;108065;1274;68361;-75
2021/11/16 10:32:29;;;;;;;;;;;;;;;19.21;29.40;98486.17;107999;1272;68515;-75
2021/11/16 10:35:07;;;;;;;;;;;;;;;19.54;28.45;98483.67;107824;1275;59685;-73
2021/11/16 10:37:55;;;;;;;;;;;;;;;18.97;29.22;98482.50;107898;1275;59737;-75
2021/11/16 10:40:26;;;;;;;;;;;;;;;19.36;28.70;98482.13;107935;1276;71667;-72
2021/11/16 10:42:58;;;;;;;;;;;;;;;19.09;28.92;98480.41;108044;1273;67532;-73
2021/11/16 10:45:28;;;;;;;;;;;;;;;19.44;28.46;98474.31;107927;1276;69387;-73
2021/11/16 10:47:59;;;;;;;;;;;;;;;19.67;27.79;98475.60;108105;1272;59677;-75
2021/11/16 10:50:30;;;;;;;;;;;;;;;20.13;27.41;98475.86;107972;1275;59736;-76
2021/11/16 10:52:59;;;;;;;;;;;;;;;19.25;28.08;98469.83;108024;1272;71551;-75
2021/11/16 10:55:36;;;;;;;;;;;;;;;19.76;27.33;98466.04;107890;1275;68651;-74
2021/11/16 10:58:05;;;;;;;;;;;;;;;19.85;27.43;98459.52;108023;1272;69291;-76
2021/11/16 11:00:43;;;;;;;;;;;;;;;20.45;26.51;98454.82;107819;1275;59822;-76
2021/11/16 11:03:15;;;;;;;;;;;;;;;20.33;26.79;98454.05;107931;1276;60078;-74
2021/11/16 11:06:07;;;;;;;;;;;;;;;20.88;26.25;98454.37;107693;1278;70790;-75
2021/11/16 11:08:37;;;;;;;;;;;;;;;20.47;26.47;98452.73;107778;1276;68738;-73
2021/11/16 11:11:07;;;;;;;;;;;;;;;21.38;25.32;98456.16;108009;1272;70142;-74
2021/11/16 11:13:36;;;;;;;;;;;;;;;21.85;24.45;98451.09;108023;1272;59781;-75
2021/11/16 11:16:11;;;;;;;;;;;;;;;22.22;24.26;98450.11;107928;1276;59719;-75
2021/11/16 11:18:41;;;;;;;;;;;;;;;22.25;23.74;98453.28;108023;1272;70828;-73
2021/11/16 11:21:22;;;;;;;;;;;;;;;21.96;24.02;98449.39;107999;1276;68667;-72
2021/11/16 11:23:58;;;;;;;;;;;;;;;22.19;23.53;98448.92;107895;1275;69481;-76
2021/11/16 11:26:53;;;;;;;;;;;;;;;22.50;22.76;98439.60;107962;1275;59756;-72
2021/11/16 11:29:28;;;;;;;;;;;;;;;22.57;22.72;98434.52;108101;1272;60044;-76
2021/11/16 11:32:16;;;;;;;;;;;;;;;22.81;22.90;98429.27;108003;1272;72412;-72
2021/11/16 11:34:47;;;;;;;;;;;;;;;23.04;21.92;98424.83;107989;1276;67655;-75
2021/11/16 11:37:18;;;;;;;;;;;;;;;22.85;22.34;98421.19;107940;1276;68675;-74
2021/11/16 11:40:22;;;;;;;;;;;;;;;21.88;23.21;98420.88;107950;1272;59806;-76
2021/11/16 11:42:52;;;;;;;;;;;;;;;21.93;23.41;98414.48;107388;1282;59742;-74
2021/11/16 11:45:24;;;;;;;;;;;;;;;22.83;22.35;98409.13;107469;1282;71620;-74
2021/11/16 11:47:59;;;;;;;;;;;;;;;23.44;22.06;98409.61;107552;1279;67885;-77
2021/11/16 11:50:32;;;;;;;;;;;;;;;24.16;20.70;98409.95;107502;1279;68678;-73
2021/11/16 11:53:03;;;;;;;;;;;;;;;24.97;20.37;98404.30;107504;1282;59819;-77
2021/11/16 11:55:34;;;;;;;;;;;;;;;24.50;20.41;98407.60;107585;1283;59851;-76
2021/11/16 11:58:04;;;;;;;;;;;;;;;22.55;22.29;98400.55;107567;1282;71378;-76
2021/11/16 12:00:34;;;;;;;;;;;;;;;23.00;21.88;98398.44;107459;1280;67989;-74
2021/11/16 12:03:04;;;;;;;;;;;;;;;23.70;20.98;98402.01;107472;1280;69506;-74
2021/11/16 12:05:34;;;;;;;;;;;;;;;23.71;20.71;98396.48;107481;1281;59809;-77
2021/11/16 12:08:04;;;;;;;;;;;;;;;23.90;20.66;98393.52;107472;1282;60538;-75
2021/11/16 12:10:34;;;;;;;;;;;;;;;24.29;20.50;98396.05;107609;1280;71609;-73
2021/11/16 12:13:04;;;;;;;;;;;;;;;23.86;20.75;98391.02;107642;1281;68836;-74
2021/11/16 12:15:50;;;;;;;;;;;;;;;23.96;20.47;98383.77;107504;1281;69603;-76
2021/11/16 12:18:20;;;;;;;;;;;;;;;23.79;20.88;98384.08;107986;1272;59693;-74
2021/11/16 12:20:52;;;;;;;;;;;;;;;23.75;20.90;98382.29;108094;1272;59646;-72
2021/11/16 12:23:40;;;;;;;;;;;;;;;23.53;21.07;98374.41;108017;1275;71521;-77
2021/11/16 12:26:10;;;;;;;;;;;;;;;23.26;21.73;98372.33;108071;1272;68430;-73
2021/11/16 12:28:44;;;;;;;;;;;;;;;22.48;22.39;98370.05;108057;1272;69407;-77
2021/11/16 12:31:24;;;;;;;;;;;;;;;23.11;21.74;98368.23;108020;1275;59771;-75
2021/11/16 12:33:53;;;;;;;;;;;;;;;23.04;21.10;98366.68;108028;1275;59697;-75
2021/11/16 12:36:31;;;;;;;;;;;;;;;22.79;21.35;98361.58;108003;1272;71753;-74
2021/11/16 12:39:09;;;;;;;;;;;;;;;22.88;21.05;98354.08;108129;1272;66895;-73
2021/11/16 12:41:40;;;;;;;;;;;;;;;22.70;21.33;98353.29;108088;1271;68665;-72
2021/11/16 12:44:10;;;;;;;;;;;;;;;22.87;21.39;98357.55;107980;1270;59736;-73
2021/11/16 12:46:43;;;;;;;;;;;;;;;22.97;21.11;98355.06;108017;1274;59707;-74
2021/11/16 12:49:30;;;;;;;;;;;;;;;22.61;21.70;98353.98;108014;1272;70780;-73
2021/11/16 12:52:01;;;;;;;;;;;;;;;23.03;21.24;98349.40;107978;1275;67862;-75
2021/11/16 12:54:33;;;;;;;;;;;;;;;23.14;20.57;98351.02;108042;1272;69422;-72
2021/11/16 12:57:12;;;;;;;;;;;;;;;22.60;20.82;98350.83;107657;1272;551106;-75
2021/11/16 12:59:43;;;;;;;;;;;;;;;22.36;21.23;98349.02;108089;1273;59706;-73
2021/11/16 13:02:24;;;;;;;;;;;;;;;22.70;21.02;98343.56;108030;1272;72025;-72
2021/11/16 13:04:55;;;;;;;;;;;;;;;22.75;20.90;98335.05;108013;1273;68911;-76
2021/11/16 13:07:26;;;;;;;;;;;;;;;22.58;21.05;98332.44;108062;1272;69828;-74
2021/11/16 13:10:15;;;;;;;;;;;;;;;22.13;21.53;98327.45;108019;1272;59760;-74
2021/11/16 13:12:58;;;;;;;;;;;;;;;22.18;21.65;98322.81;108069;1272;59771;-74
2021/11/16 13:15:32;;;;;;;;;;;;;;;22.36;21.51;98326.05;108117;1271;70654;-74
2021/11/16 13:18:04;;;;;;;;;;;;;;;20.85;23.21;98321.90;108143;1265;68090;-75